Guemes, Washington
Current Conditions -  °F | °C
As of 2:56 PM on Tuesday 21 Oct 2014 (Local Time) from KNUW Reporting Station
Broken Clouds Broken Clouds  
Wind Chill: 63°   Ceiling: 9000
Heat Index: 63°   Visibility: 10mi
Dew Point: 51°   Wind: 26mph
Humidity: 65%   Direction: 150°SSE
Pressure: 29.83"   Gusts: 39mph
Location:  48.4652°N, 122.617°W
Report Text: KNUW 212156Z 15023G34KT 10SM SCT025 BKN090 BKN150 BKN250 17/11 A2983 RMK AO2 PK WND 15034/2151 SLP105 T01720106 VISNO E $
Loading
Personal Weather Stations






























Interactive Weather Map
Tropical Storm Tracking
New forecast layout! Learn more

10-Day Weather Forecast

Advertisements
Track Severe Weather on mobile